Trafalgar, IN (46181)

9:44 PM EST on January 17, 2017 (GMT -0500)
Rod Weather Center Harlan St | | Change Station
Active Advisory: Flood Warning

Elev 778 ft 39.69 °N, 86.12 °W | Updated 15 minutes ago

Overcast
Overcast
41.6 °F
Feels Like 38 °F
N
6.0
Wind Variable Wind from WNW
Gusts 12.0 mph

Today
High -- | Low -- °F
--% Chance of Precip.
Yesterday
High -- | Low -- °F
Precip. -- in
Pressure 30.05 in
Visibility 10.0 miles
Clouds Scattered Clouds 1300 ft
Mostly Cloudy 1900 ft
Overcast 3300 ft
Windchill 38 °F
Dew Point 40.0 °F
Humidity 95%
Rainfall 0.40 in
Snow Depth Not available.
8:02 AM 5:47 PM
Waning Gibbous, 67% visible
METAR KBAK 180147Z 25007KT 10SM SCT013 BKN019 OVC033 06/06 A3005
Pressure 30.05 in
Visibility 10.0 miles
Clouds Scattered Clouds 1300 ft
Mostly Cloudy 1900 ft
Overcast 3300 ft
Windchill 38 °F
Dew Point 40.0 °F
Humidity 95%
Rainfall 0.40 in
Snow Depth Not available.
8:02 AM 5:47 PM
Waning Gibbous, 67% visible
METAR KBAK 180147Z 25007KT 10SM SCT013 BKN019 OVC033 06/06 A3005

Get Your Daily Forecast Email!

Thanks for signing up!

Be on the lookout for a verification email in your inbox.

You'll start receiving the daily forecast at 8 AM.

×

10-Day Weather Forecast

Almanac

Astronomy

Jan. 17, 2017 Rise Set
Actual Time
Civil Twilight
Nautical Twilight
Astronomical Twilight
Moon
Length of Visible Light
Length of Day
Tomorrow will be .
, % of the Moon is Illuminated

Today's Extremes

State Highs State Lows

Community

WunderPhotos

Upload Photos

1,962,540 photos uploaded!

WunderBlog® & News

Nearby

Air Quality

  Air Quality AQ Index Pollutant
Not available.

Snow Depth

Station Depth Elevation

Earthquake Activity

City Distance Mag. Time & Date
Minimum magnitude displayed is 2.5.

Coastal Water Temperatures

Place Temperature

Stations

Nearby Weather Stations

Station Location Temp. Windchill Dew Point Humidity Wind Precip. Elev Updated Type
                   

Watches & Warnings

Flood Warning
Issued: 5:34 PM EST Jan. 17, 2017 – National Weather Service

The Flood Warning continues for
the Youngs Creek at Amity.
* Until late tonight.
* At 5:15 PM Tuesday the stage was 7.0 feet.
* Flood stage is 7.0 feet.
* Minor flooding is forecast.
* Forecast... rise above flood stage by late this afternoon and
continue to rise to near 7.0 feet by this evening. The river will
fall below flood stage by tonight.
* At 7.0 feet... Youngs Creek at flood stage. Most low areas along
creek are flooded. Approaches to CR 400s bridge over Youngs Creek
begin to flood.


Lat... Lon 3945 8605 3942 8602 3937 8602 3938 8598
      3943 8599 3945 8602